TimeMST,TemperatureF,Dew PointF,Humidity,Sea Level PressureIn,VisibilityMPH,Wind Direction,Wind SpeedMPH,Gust SpeedMPH,PrecipitationIn,Events,Conditions,WindDirDegrees,DateUTC
12:12 AM,43.0,13.1,30,29.74,10.0,WNW,10.4,-,N/A,,Clear,300,2014-01-12 07:12:00
12:32 AM,43.2,12.6,29,29.73,10.0,WNW,11.5,-,N/A,,Clear,290,2014-01-12 07:32:00
12:52 AM,42.1,12.6,30,29.72,10.0,WNW,15.0,-,N/A,,Clear,300,2014-01-12 07:52:00
1:12 AM,41.5,12.7,31,29.72,10.0,NW,12.7,-,N/A,,Clear,310,2014-01-12 08:12:00
1:32 AM,40.1,12.7,33,29.70,10.0,NW,10.4,-,N/A,,Clear,320,2014-01-12 08:32:00
1:52 AM,38.5,12.7,35,29.70,10.0,NNW,9.2,-,N/A,,Clear,330,2014-01-12 08:52:00
2:12 AM,41.5,11.7,30,29.70,10.0,WNW,13.8,17.3,N/A,,Clear,300,2014-01-12 09:12:00
2:32 AM,47.1,9.9,22,29.71,10.0,WNW,11.5,23.0,N/A,,Clear,290,2014-01-12 09:32:00
2:52 AM,44.4,10.4,25,29.70,10.0,WNW,11.5,17.3,N/A,,Clear,290,2014-01-12 09:52:00
3:12 AM,43.7,10.9,26,29.69,10.0,West,16.1,24.2,N/A,,Clear,280,2014-01-12 10:12:00
3:32 AM,42.1,11.8,29,29.69,10.0,NW,11.5,17.3,N/A,,Clear,310,2014-01-12 10:32:00
3:52 AM,42.8,13.6,31,29.67,10.0,NW,12.7,-,N/A,,Clear,310,2014-01-12 10:52:00
4:12 AM,39.7,13.8,35,29.66,10.0,NW,10.4,-,N/A,,Clear,320,2014-01-12 11:12:00
4:32 AM,39.7,13.5,34,29.66,10.0,NW,12.7,-,N/A,,Clear,320,2014-01-12 11:32:00
4:52 AM,43.0,13.5,30,29.66,10.0,WNW,12.7,19.6,N/A,,Clear,300,2014-01-12 11:52:00
5:12 AM,38.3,12.6,35,29.66,10.0,North,-9999.0,-,N/A,,Clear,0,2014-01-12 12:12:00
5:32 AM,34.3,13.8,43,29.65,10.0,WNW,8.1,-,N/A,,Clear,300,2014-01-12 12:32:00
5:52 AM,35.1,14.2,42,29.65,10.0,NW,8.1,11.5,N/A,,Clear,310,2014-01-12 12:52:00
6:12 AM,35.2,13.3,41,29.65,10.0,WSW,9.2,-,N/A,,Clear,250,2014-01-12 13:12:00
6:32 AM,38.8,13.1,35,29.65,10.0,WNW,6.9,17.3,N/A,,Clear,300,2014-01-12 13:32:00
6:52 AM,38.3,14.4,38,29.65,10.0,NW,12.7,17.3,N/A,,Clear,310,2014-01-12 13:52:00
7:12 AM,39.0,13.5,35,29.65,10.0,SW,10.4,-,N/A,,Clear,220,2014-01-12 14:12:00
7:32 AM,34.2,14.0,44,29.65,10.0,North,-9999.0,-,N/A,,Clear,0,2014-01-12 14:32:00
7:52 AM,35.8,14.2,41,29.65,10.0,Calm,Calm,-,N/A,,Clear,0,2014-01-12 14:52:00
8:12 AM,40.3,15.3,36,29.65,10.0,SSW,8.1,-,N/A,,Clear,210,2014-01-12 15:12:00
8:32 AM,43.2,15.8,33,29.65,10.0,South,5.8,-,N/A,,Clear,180,2014-01-12 15:32:00
8:52 AM,43.7,16.3,33,29.65,10.0,South,4.6,-,N/A,,Clear,180,2014-01-12 15:52:00
9:12 AM,45.7,16.2,31,29.66,10.0,South,4.6,-,N/A,,Clear,190,2014-01-12 16:12:00
9:32 AM,47.5,12.9,25,29.66,10.0,West,9.2,24.2,N/A,,Clear,270,2014-01-12 16:32:00
9:52 AM,48.9,9.7,21,29.66,10.0,West,21.9,32.2,N/A,,Clear,270,2014-01-12 16:52:00
10:12 AM,48.4,11.3,22,29.65,10.0,West,26.5,31.1,N/A,,Clear,270,2014-01-12 17:12:00
10:32 AM,48.2,12.7,24,29.65,10.0,West,17.3,26.5,N/A,,Clear,280,2014-01-12 17:32:00
10:52 AM,49.1,12.2,23,29.66,10.0,WNW,8.1,20.7,N/A,,Clear,290,2014-01-12 17:52:00
11:12 AM,37.4,19.6,49,29.67,10.0,North,24.2,-,N/A,,Mostly Cloudy,350,2014-01-12 18:12:00
11:32 AM,34.7,21.2,58,29.69,10.0,North,-9999.0,-,N/A,,Overcast,0,2014-01-12 18:32:00
11:52 AM,30.9,28.2,90,29.69,0.5,NW,12.7,25.3,N/A,Snow,Light Snow,320,2014-01-12 18:52:00
12:12 PM,35.8,28.0,73,29.68,10.0,NNW,8.1,-,N/A,,Overcast,330,2014-01-12 19:12:00
12:32 PM,33.8,27.5,78,29.68,10.0,North,9.2,-,N/A,,Mostly Cloudy,350,2014-01-12 19:32:00
12:52 PM,34.3,27.7,77,29.66,10.0,North,3.5,-,N/A,,Scattered Clouds,10,2014-01-12 19:52:00
1:12 PM,37.0,24.6,61,29.67,10.0,North,16.1,20.7,N/A,,Clear,360,2014-01-12 20:12:00
1:32 PM,34.9,23.2,62,29.68,10.0,NNE,16.1,-,N/A,,Scattered Clouds,20,2014-01-12 20:32:00
1:52 PM,36.1,17.8,47,29.70,10.0,North,15.0,20.7,N/A,,Mostly Cloudy,360,2014-01-12 20:52:00
2:12 PM,35.6,9.5,34,29.72,10.0,North,17.3,32.2,N/A,,Mostly Cloudy,350,2014-01-12 21:12:00
2:32 PM,33.6,6.8,33,29.72,10.0,North,-9999.0,-,N/A,,Scattered Clouds,0,2014-01-12 21:32:00
2:52 PM,35.2,8.2,33,29.74,10.0,NNW,20.7,26.5,N/A,,Clear,340,2014-01-12 21:52:00
3:12 PM,35.8,5.4,28,29.76,10.0,NNW,18.4,25.3,N/A,,Scattered Clouds,340,2014-01-12 22:12:00
3:32 PM,35.1,5.4,29,29.78,10.0,North,15.0,19.6,N/A,,Scattered Clouds,360,2014-01-12 22:32:00
3:52 PM,36.9,3.0,24,29.79,10.0,NW,16.1,20.7,N/A,,Mostly Cloudy,320,2014-01-12 22:52:00
4:12 PM,34.0,3.2,27,29.80,10.0,North,-9999.0,-,N/A,,Mostly Cloudy,0,2014-01-12 23:12:00
4:32 PM,32.0,2.5,29,29.82,10.0,North,-9999.0,-,N/A,,Scattered Clouds,0,2014-01-12 23:32:00
4:52 PM,30.2,2.5,31,29.83,10.0,North,-9999.0,-,N/A,,Clear,0,2014-01-12 23:52:00
5:12 PM,29.3,2.5,32,29.84,10.0,NNW,11.5,-,N/A,,Clear,330,2014-01-13 00:12:00
5:32 PM,28.9,1.4,31,29.86,10.0,NW,12.7,-,N/A,,Clear,320,2014-01-13 00:32:00
5:52 PM,28.4,1.2,31,29.87,10.0,NNW,11.5,19.6,N/A,,Clear,330,2014-01-13 00:52:00
6:12 PM,28.4,1.4,31,29.88,10.0,North,-9999.0,-,N/A,,Clear,0,2014-01-13 01:12:00
6:32 PM,27.1,3.0,36,29.89,10.0,NNW,8.1,-,N/A,,Clear,340,2014-01-13 01:32:00
6:52 PM,25.9,3.9,39,29.90,10.0,NNW,10.4,-,N/A,,Clear,330,2014-01-13 01:52:00
7:12 PM,26.2,3.4,38,29.91,10.0,North,10.4,-,N/A,,Clear,350,2014-01-13 02:12:00
7:32 PM,25.7,3.2,38,29.92,10.0,NNW,9.2,17.3,N/A,,Clear,340,2014-01-13 02:32:00
7:52 PM,24.8,4.1,41,29.92,10.0,North,-9999.0,-,N/A,,Clear,0,2014-01-13 02:52:00
8:12 PM,24.8,5.0,43,29.92,10.0,North,-9999.0,-,N/A,,Clear,0,2014-01-13 03:12:00
8:32 PM,24.8,4.8,43,29.94,10.0,NNW,10.4,-,N/A,,Clear,330,2014-01-13 03:32:00
8:52 PM,24.4,4.8,43,29.94,10.0,North,-9999.0,-,N/A,,Clear,0,2014-01-13 03:52:00
9:12 PM,22.8,5.0,47,29.95,10.0,North,-9999.0,-,N/A,,Clear,0,2014-01-13 04:12:00
9:32 PM,23.0,4.6,45,29.96,10.0,North,-9999.0,-,N/A,,Clear,0,2014-01-13 04:32:00
9:52 PM,21.2,4.5,49,29.96,10.0,North,-9999.0,-,N/A,,Clear,0,2014-01-13 04:52:00
10:12 PM,19.8,4.8,52,29.96,10.0,North,-9999.0,-,N/A,,Clear,0,2014-01-13 05:12:00
10:32 PM,18.0,5.4,58,29.96,10.0,North,-9999.0,-,N/A,,Clear,0,2014-01-13 05:32:00
10:52 PM,17.6,5.0,58,29.96,10.0,North,-9999.0,-,N/A,,Clear,0,2014-01-13 05:52:00
11:12 PM,18.1,5.0,57,29.96,10.0,North,-9999.0,-,N/A,,Clear,0,2014-01-13 06:12:00
11:32 PM,15.6,5.0,63,29.96,10.0,North,-9999.0,-,N/A,,Clear,0,2014-01-13 06:32:00
11:52 PM,14.2,4.8,66,29.96,10.0,North,-9999.0,-,N/A,,Clear,0,2014-01-13 06:52:00